Terminal Aerodrome Forecast
Issued by NWS Cleveland, OH

Home | Current Version | Previous Version | Text Only | Print | Product List | Glossary Off
Versions: 1 2 3 4 5 6 7 8 9 10 11 12 13

000
FTUS41 KCLE 242328
TAFYNG
TAF
KYNG 242328Z 2500/2524 32010KT P6SM OVC045
     FM250300 32010KT P6SM BKN030
     FM250500 32008KT P6SM BKN015
     FM251400 34006KT P6SM BKN020
     FM251700 35006KT P6SM BKN035
     FM251800 35006KT P6SM SCT030=

USA.gov is the U.S. government's official web portal to all federal, state and local government web resources and services.